createdAt,value
2018-04-12T00:01:06.363Z,9.60
2018-04-12T00:05:40.334Z,9.30
2018-04-12T00:10:13.592Z,9.20
2018-04-12T00:14:47.601Z,9.30
2018-04-12T00:19:21.545Z,9.30
2018-04-12T00:23:55.527Z,9.10
2018-04-12T00:28:28.745Z,9.10
2018-04-12T00:33:01.986Z,9.10
2018-04-12T00:37:35.926Z,8.80
2018-04-12T00:42:09.127Z,8.70
2018-04-12T00:46:43.366Z,9.00
2018-04-12T00:51:16.695Z,8.90
2018-04-12T00:55:49.927Z,9.00
2018-04-12T01:00:23.154Z,9.00
2018-04-12T01:04:57.185Z,9.20
2018-04-12T01:09:30.472Z,9.20
2018-04-12T01:14:03.638Z,9.20
2018-04-12T01:18:36.813Z,9.20
2018-04-12T01:23:10.058Z,9.20
2018-04-12T01:27:43.209Z,9.20
2018-04-12T01:32:16.531Z,9.20
2018-04-12T01:36:50.567Z,9.30
2018-04-12T01:41:24.528Z,9.30
2018-04-12T01:45:57.773Z,9.20
2018-04-12T01:50:30.955Z,9.20
2018-04-12T01:55:04.430Z,9.20
2018-04-12T01:59:37.671Z,9.20
2018-04-12T02:04:10.904Z,9.20
2018-04-12T02:08:44.971Z,9.40
2018-04-12T02:13:18.225Z,9.30
2018-04-12T02:17:51.494Z,9.40
2018-04-12T02:22:24.752Z,9.40
2018-04-12T02:26:58.838Z,9.50
2018-04-12T02:31:32.019Z,9.40
2018-04-12T02:36:05.974Z,9.70
2018-04-12T02:40:39.203Z,9.60
2018-04-12T02:45:12.425Z,9.70
2018-04-12T02:49:45.609Z,9.70
2018-04-12T02:54:18.802Z,9.70
2018-04-12T02:58:53.425Z,9.70
2018-04-12T03:03:27.445Z,9.80
2018-04-12T03:08:01.591Z,9.90
2018-04-12T03:12:34.798Z,9.90
2018-04-12T03:17:08.064Z,10.20
2018-04-12T03:21:42.080Z,10.10
2018-04-12T03:26:16.131Z,10.00
2018-04-12T03:30:50.155Z,9.90
2018-04-12T03:35:24.133Z,9.80
2018-04-12T03:39:57.384Z,9.80
2018-04-12T03:44:31.550Z,9.60
2018-04-12T03:49:04.905Z,9.50
2018-04-12T03:53:38.066Z,9.60
2018-04-12T03:58:11.338Z,9.50
2018-04-12T04:02:45.995Z,9.60
2018-04-12T04:07:19.278Z,9.60
2018-04-12T04:11:52.490Z,9.60
2018-04-12T04:16:38.535Z,9.40
2018-04-12T04:21:14.596Z,9.40
2018-04-12T04:25:47.971Z,9.30
2018-04-12T04:30:22.320Z,9.50
2018-04-12T04:34:56.380Z,9.40
2018-04-12T04:39:29.748Z,9.40
2018-04-12T04:44:03.253Z,9.30
2018-04-12T04:48:37.351Z,9.10
2018-04-12T04:53:11.452Z,9.00
2018-04-12T04:57:44.689Z,9.10
2018-04-12T05:02:17.934Z,9.00
2018-04-12T05:06:51.974Z,9.20
2018-04-12T05:11:25.245Z,9.10
2018-04-12T05:15:58.488Z,9.30
2018-04-12T05:20:31.816Z,9.60
2018-04-12T05:25:05.009Z,9.80
2018-04-12T05:29:38.286Z,9.60
2018-04-12T05:34:11.557Z,9.70
2018-04-12T05:38:44.793Z,9.90
2018-04-12T05:43:18.011Z,10.00
2018-04-12T05:47:51.234Z,10.10
2018-04-12T05:52:24.482Z,10.30
2018-04-12T05:56:57.760Z,10.50
2018-04-12T06:01:30.990Z,10.40
2018-04-12T06:06:04.239Z,10.40
2018-04-12T06:10:37.433Z,10.50
2018-04-12T06:15:10.680Z,11.00
2018-04-12T06:19:44.672Z,12.10
2018-04-12T06:24:17.943Z,12.00
2018-04-12T06:28:51.156Z,11.90
2018-04-12T06:33:24.416Z,11.90
2018-04-12T06:37:58.651Z,12.50
2018-04-12T06:42:32.811Z,12.80
2018-04-12T06:47:06.010Z,12.70
2018-04-12T06:51:39.294Z,13.00
2018-04-12T06:56:13.300Z,13.60
2018-04-12T07:00:46.525Z,13.60
2018-04-12T07:05:20.491Z,13.60
2018-04-12T07:09:53.725Z,13.50
2018-04-12T07:14:26.951Z,13.60
2018-04-12T07:19:00.193Z,13.80
2018-04-12T07:23:33.414Z,14.00
2018-04-12T07:28:06.671Z,14.10
2018-04-12T07:32:39.933Z,14.70
2018-04-12T07:37:13.179Z,14.80
2018-04-12T07:41:46.514Z,14.80
2018-04-12T07:46:20.537Z,16.00
2018-04-12T07:50:54.537Z,16.40
2018-04-12T07:55:27.709Z,16.30
2018-04-12T08:00:01.067Z,17.50
2018-04-12T08:04:34.290Z,17.60
2018-04-12T08:09:08.346Z,18.60
2018-04-12T08:13:41.631Z,18.50
2018-04-12T08:18:15.613Z,19.80
2018-04-12T08:22:48.932Z,19.70
2018-04-12T08:27:23.816Z,18.80
2018-04-12T08:31:57.049Z,18.80
2018-04-12T08:36:30.309Z,19.30
2018-04-12T08:41:04.391Z,20.00
2018-04-12T08:45:37.642Z,19.90
2018-04-12T08:50:11.068Z,18.60
2018-04-12T08:54:45.155Z,18.20
2018-04-12T08:59:18.435Z,18.10
2018-04-12T09:03:51.773Z,18.90
2018-04-12T09:08:25.034Z,20.10
2018-04-12T09:12:59.469Z,19.70
2018-04-12T09:17:32.770Z,19.60
2018-04-12T09:22:06.725Z,18.60
2018-04-12T09:26:41.176Z,18.50
2018-04-12T09:31:15.371Z,18.70
2018-04-12T09:35:49.398Z,18.60
2018-04-12T09:40:23.411Z,17.90
2018-04-12T09:44:57.481Z,17.40
2018-04-12T09:49:30.708Z,17.40
2018-04-12T09:54:04.003Z,17.30
2018-04-12T09:58:37.359Z,17.10
2018-04-12T10:03:12.353Z,17.40
2018-04-12T10:07:51.206Z,17.30
2018-04-12T10:12:24.597Z,17.10
2018-04-12T10:16:57.915Z,17.30
2018-04-12T10:21:31.149Z,17.10
2018-04-12T10:26:04.416Z,17.00
2018-04-12T10:30:37.637Z,17.10
2018-04-12T10:35:10.877Z,17.20
2018-04-12T10:39:44.133Z,17.80
2018-04-12T10:44:17.477Z,18.10
2018-04-12T10:48:50.719Z,18.90
2018-04-12T10:53:24.044Z,21.30
2018-04-12T10:57:57.498Z,21.70
2018-04-12T11:02:30.678Z,21.10
2018-04-12T11:07:04.296Z,19.70
2018-04-12T11:11:37.581Z,18.80
2018-04-12T11:16:11.589Z,17.30
2018-04-12T11:20:44.826Z,17.20
2018-04-12T11:25:19.180Z,16.90
2018-04-12T11:29:52.766Z,16.90
2018-04-12T11:34:26.050Z,16.80
2018-04-12T11:38:59.245Z,16.40
2018-04-12T11:43:32.446Z,16.00
2018-04-12T11:48:08.095Z,15.90
2018-04-12T11:52:42.810Z,15.90
2018-04-12T11:57:16.216Z,16.00
2018-04-12T12:01:55.098Z,16.10
2018-04-12T12:06:28.366Z,16.00
2018-04-12T12:11:02.070Z,15.80
2018-04-12T12:15:35.282Z,16.10
2018-04-12T12:20:09.254Z,17.50
2018-04-12T12:24:42.552Z,17.40
2018-04-12T12:29:15.917Z,20.00
2018-04-12T12:33:49.514Z,21.70
2018-04-12T12:38:23.564Z,23.20
2018-04-12T12:42:56.914Z,23.10
2018-04-12T12:47:30.304Z,23.70
2018-04-12T12:52:03.596Z,23.70
2018-04-12T12:56:36.874Z,24.40
2018-04-12T13:01:10.216Z,25.20
2018-04-12T13:05:43.574Z,26.10
2018-04-12T13:10:16.829Z,27.00
2018-04-12T13:14:50.043Z,25.10
2018-04-12T13:19:24.027Z,21.70
2018-04-12T13:23:57.240Z,21.50
2018-04-12T13:28:31.888Z,23.20
2018-04-12T13:33:05.100Z,23.10
2018-04-12T13:37:39.095Z,24.60
2018-04-12T13:42:13.009Z,24.50
2018-04-12T13:46:46.262Z,23.80
2018-04-12T13:51:19.438Z,24.40
2018-04-12T13:55:52.648Z,24.60
2018-04-12T14:00:25.879Z,23.30
2018-04-12T14:05:00.578Z,21.20
2018-04-12T14:09:33.783Z,21.20
2018-04-12T14:14:07.087Z,21.40
2018-04-12T14:18:40.281Z,21.50
2018-04-12T14:23:13.967Z,21.70
2018-04-12T14:27:47.933Z,21.90
2018-04-12T14:32:21.300Z,21.90
2018-04-12T14:36:55.276Z,21.00
2018-04-12T14:41:28.917Z,20.90
2018-04-12T14:46:02.254Z,20.90
2018-04-12T14:50:36.263Z,19.60
2018-04-12T14:55:10.929Z,19.50
2018-04-12T14:59:45.149Z,19.40
2018-04-12T15:04:19.202Z,19.30
2018-04-12T15:08:52.413Z,19.20
2018-04-12T15:13:25.789Z,19.20
2018-04-12T15:17:59.800Z,19.10
2018-04-12T15:22:33.812Z,18.90
2018-04-12T15:27:07.023Z,18.90
2018-04-12T15:31:40.358Z,18.80
2018-04-12T15:36:14.367Z,19.20
2018-04-12T15:40:47.530Z,19.10
2018-04-12T15:45:20.999Z,19.60
2018-04-12T15:49:54.365Z,19.80
2018-04-12T15:54:27.553Z,19.80
2018-04-12T15:59:00.774Z,19.80
2018-04-12T16:03:34.006Z,19.70
2018-04-12T16:08:07.241Z,19.50
2018-04-12T16:12:41.266Z,19.50
2018-04-12T16:17:15.216Z,19.70
2018-04-12T16:21:48.497Z,19.60
2018-04-12T16:26:22.460Z,20.00
2018-04-12T16:30:55.698Z,20.00
2018-04-12T16:35:28.976Z,20.30
2018-04-12T16:40:02.182Z,20.50
2018-04-12T16:44:35.671Z,20.60
2018-04-12T16:49:09.081Z,20.50
2018-04-12T16:53:43.071Z,20.40
2018-04-12T16:58:16.331Z,20.30
2018-04-12T17:02:49.561Z,20.40
2018-04-12T17:07:22.790Z,20.40
2018-04-12T17:11:56.347Z,20.10
2018-04-12T17:16:30.324Z,19.90
2018-04-12T17:21:04.274Z,19.80
2018-04-12T17:25:38.230Z,19.80
2018-04-12T17:30:11.423Z,19.70
2018-04-12T17:34:45.373Z,19.40
2018-04-12T17:39:18.579Z,19.30
2018-04-12T17:43:51.852Z,19.10
2018-04-12T17:48:25.814Z,18.60
2018-04-12T17:52:59.039Z,18.50
2018-04-12T17:57:32.255Z,18.40
2018-04-12T18:02:05.481Z,18.20
2018-04-12T18:06:39.297Z,18.00
2018-04-12T18:11:12.712Z,17.70
2018-04-12T18:15:45.942Z,17.50
2018-04-12T18:20:19.918Z,16.80
2018-04-12T18:24:53.164Z,16.70
2018-04-12T18:29:26.357Z,16.50
2018-04-12T18:34:01.061Z,16.00
2018-04-12T18:38:34.275Z,16.00
2018-04-12T18:43:07.483Z,15.70
2018-04-12T18:47:40.714Z,15.30
2018-04-12T18:52:13.958Z,14.90
2018-04-12T18:56:47.926Z,14.70
2018-04-12T19:01:21.115Z,14.60
2018-04-12T19:05:55.009Z,14.20
2018-04-12T19:10:28.287Z,13.90
2018-04-12T19:15:01.516Z,13.70
2018-04-12T19:19:35.519Z,13.30
2018-04-12T19:24:08.769Z,13.30
2018-04-12T19:28:42.063Z,13.30
2018-04-12T19:33:16.083Z,13.00
2018-04-12T19:37:50.096Z,12.90
2018-04-12T19:42:24.110Z,12.90
2018-04-12T19:46:57.472Z,12.90
2018-04-12T19:51:30.722Z,12.70
2018-04-12T19:56:03.932Z,12.40
2018-04-12T20:00:37.172Z,12.10
2018-04-12T20:05:11.144Z,12.00
2018-04-12T20:09:44.411Z,11.90
2018-04-12T20:14:18.434Z,11.70
2018-04-12T20:18:51.878Z,11.60
2018-04-12T20:23:25.432Z,11.40
2018-04-12T20:27:58.807Z,10.80
2018-04-12T20:32:32.177Z,10.70
2018-04-12T20:37:06.171Z,11.00
2018-04-12T20:41:39.393Z,10.90
2018-04-12T20:46:14.183Z,10.60
2018-04-12T20:50:47.621Z,10.60
2018-04-12T20:55:20.895Z,10.40
2018-04-12T20:59:54.119Z,10.20
2018-04-12T21:04:27.332Z,10.20
2018-04-12T21:09:00.531Z,10.30
2018-04-12T21:13:33.741Z,10.40
2018-04-12T21:18:06.953Z,10.50
2018-04-12T21:22:40.638Z,10.30
2018-04-12T21:27:14.607Z,9.90
2018-04-12T21:31:47.799Z,9.80
2018-04-12T21:36:21.027Z,9.90
2018-04-12T21:40:54.273Z,9.90
2018-04-12T21:45:28.258Z,9.80
2018-04-12T21:50:01.498Z,9.70
2018-04-12T21:54:35.542Z,9.00
2018-04-12T21:59:08.943Z,8.90
2018-04-12T22:03:42.871Z,9.00
2018-04-12T22:08:16.857Z,8.80
2018-04-12T22:12:50.085Z,8.70
2018-04-12T22:17:23.343Z,8.60
2018-04-12T22:21:56.559Z,8.80
2018-04-12T22:26:29.794Z,8.60
2018-04-12T22:31:03.042Z,8.60
2018-04-12T22:35:36.286Z,8.60
2018-04-12T22:40:09.442Z,8.20
2018-04-12T22:44:43.439Z,8.20
2018-04-12T22:49:16.626Z,8.20
2018-04-12T22:53:49.861Z,8.40
2018-04-12T22:58:23.135Z,8.50
2018-04-12T23:02:56.376Z,8.60
2018-04-12T23:07:29.614Z,8.40
2018-04-12T23:12:03.585Z,7.90
2018-04-12T23:16:36.836Z,7.90
2018-04-12T23:21:10.148Z,7.90
2018-04-12T23:25:44.094Z,8.20
2018-04-12T23:30:17.253Z,8.10
2018-04-12T23:34:50.498Z,8.20
2018-04-12T23:39:23.732Z,8.10
2018-04-12T23:43:56.994Z,8.00
2018-04-12T23:48:30.206Z,8.00
2018-04-12T23:53:04.222Z,7.90
2018-04-12T23:57:38.233Z,7.90
